sensor_id;sensor_type;location;lat;lon;timestamp;P1;durP1;ratioP1;P2;durP2;ratioP2
8663;SDS011;4369;47.842;13.096;2023-01-25T00:01:59;18.53;;;10.70;;
8663;SDS011;4369;47.842;13.096;2023-01-25T00:04:26;15.73;;;10.43;;
8663;SDS011;4369;47.842;13.096;2023-01-25T00:06:54;15.97;;;10.80;;
8663;SDS011;4369;47.842;13.096;2023-01-25T00:09:21;17.33;;;11.47;;
8663;SDS011;4369;47.842;13.096;2023-01-25T00:11:49;17.60;;;11.00;;
8663;SDS011;4369;47.842;13.096;2023-01-25T00:14:17;16.03;;;10.83;;
8663;SDS011;4369;47.842;13.096;2023-01-25T00:16:45;17.80;;;11.23;;
8663;SDS011;4369;47.842;13.096;2023-01-25T00:19:12;17.30;;;10.73;;
8663;SDS011;4369;47.842;13.096;2023-01-25T00:21:39;19.13;;;11.30;;
8663;SDS011;4369;47.842;13.096;2023-01-25T00:24:07;16.93;;;11.37;;
8663;SDS011;4369;47.842;13.096;2023-01-25T00:26:35;18.30;;;11.03;;
8663;SDS011;4369;47.842;13.096;2023-01-25T00:29:03;16.40;;;10.37;;
8663;SDS011;4369;47.842;13.096;2023-01-25T00:31:36;15.17;;;10.13;;
8663;SDS011;4369;47.842;13.096;2023-01-25T00:34:29;15.87;;;10.13;;
8663;SDS011;4369;47.842;13.096;2023-01-25T00:37:12;15.73;;;9.80;;
8663;SDS011;4369;47.842;13.096;2023-01-25T00:39:53;15.07;;;9.97;;
8663;SDS011;4369;47.842;13.096;2023-01-25T00:42:21;14.70;;;10.07;;
8663;SDS011;4369;47.842;13.096;2023-01-25T00:44:48;16.50;;;10.60;;
8663;SDS011;4369;47.842;13.096;2023-01-25T00:47:15;15.03;;;9.73;;
8663;SDS011;4369;47.842;13.096;2023-01-25T00:49:44;15.57;;;9.40;;
8663;SDS011;4369;47.842;13.096;2023-01-25T00:52:11;14.43;;;9.90;;
8663;SDS011;4369;47.842;13.096;2023-01-25T00:54:39;17.20;;;10.67;;
8663;SDS011;4369;47.842;13.096;2023-01-25T00:57:07;16.23;;;9.97;;
8663;SDS011;4369;47.842;13.096;2023-01-25T00:59:35;14.93;;;10.07;;
8663;SDS011;4369;47.842;13.096;2023-01-25T01:02:02;14.80;;;9.77;;
8663;SDS011;4369;47.842;13.096;2023-01-25T01:04:29;16.07;;;9.50;;
8663;SDS011;4369;47.842;13.096;2023-01-25T01:06:58;15.60;;;10.10;;
8663;SDS011;4369;47.842;13.096;2023-01-25T01:09:25;16.00;;;10.40;;
8663;SDS011;4369;47.842;13.096;2023-01-25T01:11:52;14.80;;;10.87;;
8663;SDS011;4369;47.842;13.096;2023-01-25T01:14:20;13.53;;;9.63;;
8663;SDS011;4369;47.842;13.096;2023-01-25T01:16:47;14.50;;;9.43;;
8663;SDS011;4369;47.842;13.096;2023-01-25T01:19:14;14.23;;;10.00;;
8663;SDS011;4369;47.842;13.096;2023-01-25T01:21:41;14.87;;;9.97;;
8663;SDS011;4369;47.842;13.096;2023-01-25T01:24:09;16.00;;;10.57;;
8663;SDS011;4369;47.842;13.096;2023-01-25T01:26:36;14.77;;;10.07;;
8663;SDS011;4369;47.842;13.096;2023-01-25T01:29:03;14.10;;;9.60;;
8663;SDS011;4369;47.842;13.096;2023-01-25T01:31:30;13.27;;;9.73;;
8663;SDS011;4369;47.842;13.096;2023-01-25T01:33:57;14.77;;;9.80;;
8663;SDS011;4369;47.842;13.096;2023-01-25T01:36:26;15.03;;;10.27;;
8663;SDS011;4369;47.842;13.096;2023-01-25T01:38:54;16.27;;;10.30;;
8663;SDS011;4369;47.842;13.096;2023-01-25T01:41:23;15.03;;;9.93;;
8663;SDS011;4369;47.842;13.096;2023-01-25T01:43:51;14.17;;;9.50;;
8663;SDS011;4369;47.842;13.096;2023-01-25T01:46:26;15.00;;;9.70;;
8663;SDS011;4369;47.842;13.096;2023-01-25T01:48:59;12.33;;;9.43;;
8663;SDS011;4369;47.842;13.096;2023-01-25T01:51:31;12.20;;;9.23;;
8663;SDS011;4369;47.842;13.096;2023-01-25T01:54:07;15.30;;;10.07;;
8663;SDS011;4369;47.842;13.096;2023-01-25T01:56:39;12.83;;;9.63;;
8663;SDS011;4369;47.842;13.096;2023-01-25T01:59:10;11.97;;;9.27;;
8663;SDS011;4369;47.842;13.096;2023-01-25T02:01:38;14.70;;;9.77;;
8663;SDS011;4369;47.842;13.096;2023-01-25T02:04:05;13.07;;;9.40;;
8663;SDS011;4369;47.842;13.096;2023-01-25T02:06:34;13.97;;;9.40;;
8663;SDS011;4369;47.842;13.096;2023-01-25T02:09:06;14.90;;;10.50;;
8663;SDS011;4369;47.842;13.096;2023-01-25T02:11:33;15.60;;;10.57;;
8663;SDS011;4369;47.842;13.096;2023-01-25T02:14:04;15.80;;;10.57;;
8663;SDS011;4369;47.842;13.096;2023-01-25T02:16:32;15.30;;;9.47;;
8663;SDS011;4369;47.842;13.096;2023-01-25T02:18:58;12.03;;;8.67;;
8663;SDS011;4369;47.842;13.096;2023-01-25T02:21:29;14.43;;;9.90;;
8663;SDS011;4369;47.842;13.096;2023-01-25T02:24:03;11.90;;;8.57;;
8663;SDS011;4369;47.842;13.096;2023-01-25T02:26:36;14.40;;;9.57;;
8663;SDS011;4369;47.842;13.096;2023-01-25T02:29:03;16.17;;;10.17;;
8663;SDS011;4369;47.842;13.096;2023-01-25T02:31:31;14.10;;;9.20;;
8663;SDS011;4369;47.842;13.096;2023-01-25T02:33:58;14.60;;;10.00;;
8663;SDS011;4369;47.842;13.096;2023-01-25T02:36:26;14.87;;;10.20;;
8663;SDS011;4369;47.842;13.096;2023-01-25T02:38:56;17.00;;;11.27;;
8663;SDS011;4369;47.842;13.096;2023-01-25T02:41:26;19.20;;;12.57;;
8663;SDS011;4369;47.842;13.096;2023-01-25T02:43:59;17.27;;;12.23;;
8663;SDS011;4369;47.842;13.096;2023-01-25T02:46:27;17.60;;;12.40;;
8663;SDS011;4369;47.842;13.096;2023-01-25T02:48:56;17.40;;;12.53;;
8663;SDS011;4369;47.842;13.096;2023-01-25T02:51:24;18.10;;;12.23;;
8663;SDS011;4369;47.842;13.096;2023-01-25T02:53:53;16.33;;;11.47;;
8663;SDS011;4369;47.842;13.096;2023-01-25T02:56:20;16.63;;;12.13;;
8663;SDS011;4369;47.842;13.096;2023-01-25T02:58:47;17.47;;;11.83;;
8663;SDS011;4369;47.842;13.096;2023-01-25T03:01:16;17.27;;;11.50;;
8663;SDS011;4369;47.842;13.096;2023-01-25T03:03:42;17.03;;;10.57;;
8663;SDS011;4369;47.842;13.096;2023-01-25T03:06:10;15.23;;;9.63;;
8663;SDS011;4369;47.842;13.096;2023-01-25T03:08:36;11.87;;;8.77;;
8663;SDS011;4369;47.842;13.096;2023-01-25T03:11:04;13.23;;;8.87;;
8663;SDS011;4369;47.842;13.096;2023-01-25T03:13:33;12.73;;;8.53;;
8663;SDS011;4369;47.842;13.096;2023-01-25T03:16:01;11.40;;;8.23;;
8663;SDS011;4369;47.842;13.096;2023-01-25T03:18:31;12.43;;;8.83;;
8663;SDS011;4369;47.842;13.096;2023-01-25T03:21:03;12.43;;;8.73;;
8663;SDS011;4369;47.842;13.096;2023-01-25T03:23:31;16.03;;;9.70;;
8663;SDS011;4369;47.842;13.096;2023-01-25T03:26:05;16.47;;;10.90;;
8663;SDS011;4369;47.842;13.096;2023-01-25T03:28:34;13.90;;;9.30;;
8663;SDS011;4369;47.842;13.096;2023-01-25T03:31:01;12.67;;;8.90;;
8663;SDS011;4369;47.842;13.096;2023-01-25T03:33:28;13.30;;;8.37;;
8663;SDS011;4369;47.842;13.096;2023-01-25T03:35:56;12.67;;;8.93;;
8663;SDS011;4369;47.842;13.096;2023-01-25T03:38:24;13.67;;;8.90;;
8663;SDS011;4369;47.842;13.096;2023-01-25T03:40:51;11.00;;;7.97;;
8663;SDS011;4369;47.842;13.096;2023-01-25T03:43:18;11.77;;;8.60;;
8663;SDS011;4369;47.842;13.096;2023-01-25T03:45:46;13.53;;;8.70;;
8663;SDS011;4369;47.842;13.096;2023-01-25T03:48:17;12.70;;;8.60;;
8663;SDS011;4369;47.842;13.096;2023-01-25T03:50:47;11.43;;;8.47;;
8663;SDS011;4369;47.842;13.096;2023-01-25T03:53:22;10.53;;;7.57;;
8663;SDS011;4369;47.842;13.096;2023-01-25T03:55:54;10.33;;;8.00;;
8663;SDS011;4369;47.842;13.096;2023-01-25T03:58:22;12.90;;;8.47;;
8663;SDS011;4369;47.842;13.096;2023-01-25T04:00:50;13.27;;;8.20;;
8663;SDS011;4369;47.842;13.096;2023-01-25T04:03:20;12.33;;;8.30;;
8663;SDS011;4369;47.842;13.096;2023-01-25T04:05:46;10.73;;;8.33;;
8663;SDS011;4369;47.842;13.096;2023-01-25T04:08:13;13.03;;;8.33;;
8663;SDS011;4369;47.842;13.096;2023-01-25T04:10:42;11.73;;;8.00;;
8663;SDS011;4369;47.842;13.096;2023-01-25T04:13:09;10.73;;;8.10;;
8663;SDS011;4369;47.842;13.096;2023-01-25T04:15:36;12.63;;;10.25;;
8663;SDS011;4369;47.842;13.096;2023-01-25T04:18:03;12.80;;;9.07;;
8663;SDS011;4369;47.842;13.096;2023-01-25T04:20:30;12.83;;;8.13;;
8663;SDS011;4369;47.842;13.096;2023-01-25T04:22:57;11.47;;;8.43;;
8663;SDS011;4369;47.842;13.096;2023-01-25T04:25:24;12.00;;;8.70;;
8663;SDS011;4369;47.842;13.096;2023-01-25T04:27:52;12.00;;;8.80;;
8663;SDS011;4369;47.842;13.096;2023-01-25T04:30:19;13.37;;;9.40;;
8663;SDS011;4369;47.842;13.096;2023-01-25T04:32:46;11.70;;;8.27;;
8663;SDS011;4369;47.842;13.096;2023-01-25T04:35:13;13.17;;;8.80;;
8663;SDS011;4369;47.842;13.096;2023-01-25T04:37:40;11.47;;;8.53;;
8663;SDS011;4369;47.842;13.096;2023-01-25T04:40:07;11.20;;;8.33;;
8663;SDS011;4369;47.842;13.096;2023-01-25T04:42:35;11.43;;;8.13;;
8663;SDS011;4369;47.842;13.096;2023-01-25T04:45:03;12.00;;;8.70;;
8663;SDS011;4369;47.842;13.096;2023-01-25T04:47:31;14.50;;;8.53;;
8663;SDS011;4369;47.842;13.096;2023-01-25T04:49:59;12.70;;;8.70;;
8663;SDS011;4369;47.842;13.096;2023-01-25T04:52:26;13.37;;;8.83;;
8663;SDS011;4369;47.842;13.096;2023-01-25T04:54:53;11.00;;;8.53;;
8663;SDS011;4369;47.842;13.096;2023-01-25T04:57:20;12.03;;;8.83;;
8663;SDS011;4369;47.842;13.096;2023-01-25T04:59:47;14.53;;;10.00;;
8663;SDS011;4369;47.842;13.096;2023-01-25T05:02:15;11.70;;;9.43;;
8663;SDS011;4369;47.842;13.096;2023-01-25T05:04:42;13.97;;;9.50;;
8663;SDS011;4369;47.842;13.096;2023-01-25T05:07:09;14.03;;;9.33;;
8663;SDS011;4369;47.842;13.096;2023-01-25T05:09:35;15.03;;;10.13;;
8663;SDS011;4369;47.842;13.096;2023-01-25T05:12:02;16.30;;;10.07;;
8663;SDS011;4369;47.842;13.096;2023-01-25T05:14:35;15.80;;;10.30;;
8663;SDS011;4369;47.842;13.096;2023-01-25T05:17:02;15.40;;;10.13;;
8663;SDS011;4369;47.842;13.096;2023-01-25T05:19:31;14.97;;;9.83;;
8663;SDS011;4369;47.842;13.096;2023-01-25T05:21:58;15.97;;;10.53;;
8663;SDS011;4369;47.842;13.096;2023-01-25T05:24:25;15.32;;;11.18;;
8663;SDS011;4369;47.842;13.096;2023-01-25T05:26:53;15.90;;;10.70;;
8663;SDS011;4369;47.842;13.096;2023-01-25T05:29:27;16.80;;;11.30;;
8663;SDS011;4369;47.842;13.096;2023-01-25T05:31:55;14.80;;;10.67;;
8663;SDS011;4369;47.842;13.096;2023-01-25T05:34:22;16.53;;;11.07;;
8663;SDS011;4369;47.842;13.096;2023-01-25T05:36:51;16.70;;;11.23;;
8663;SDS011;4369;47.842;13.096;2023-01-25T05:39:18;16.03;;;11.17;;
8663;SDS011;4369;47.842;13.096;2023-01-25T05:41:45;17.70;;;11.47;;
8663;SDS011;4369;47.842;13.096;2023-01-25T05:44:12;14.57;;;11.00;;
8663;SDS011;4369;47.842;13.096;2023-01-25T05:46:39;19.63;;;11.60;;
8663;SDS011;4369;47.842;13.096;2023-01-25T05:49:07;21.77;;;13.80;;
8663;SDS011;4369;47.842;13.096;2023-01-25T05:51:33;23.90;;;16.17;;
8663;SDS011;4369;47.842;13.096;2023-01-25T05:54:03;23.47;;;16.27;;
8663;SDS011;4369;47.842;13.096;2023-01-25T05:56:31;18.57;;;12.77;;
8663;SDS011;4369;47.842;13.096;2023-01-25T05:58:58;16.77;;;11.33;;
8663;SDS011;4369;47.842;13.096;2023-01-25T06:01:27;17.50;;;11.93;;
8663;SDS011;4369;47.842;13.096;2023-01-25T06:03:54;15.73;;;10.83;;
8663;SDS011;4369;47.842;13.096;2023-01-25T06:06:22;14.83;;;10.00;;
8663;SDS011;4369;47.842;13.096;2023-01-25T06:08:49;15.20;;;10.40;;
8663;SDS011;4369;47.842;13.096;2023-01-25T06:11:18;15.33;;;10.63;;
8663;SDS011;4369;47.842;13.096;2023-01-25T06:13:46;16.20;;;10.63;;
8663;SDS011;4369;47.842;13.096;2023-01-25T06:16:14;15.20;;;10.67;;
8663;SDS011;4369;47.842;13.096;2023-01-25T06:18:41;16.40;;;10.27;;
8663;SDS011;4369;47.842;13.096;2023-01-25T06:21:09;15.80;;;10.47;;
8663;SDS011;4369;47.842;13.096;2023-01-25T06:23:36;14.83;;;10.20;;
8663;SDS011;4369;47.842;13.096;2023-01-25T06:26:05;15.33;;;10.30;;
8663;SDS011;4369;47.842;13.096;2023-01-25T06:28:35;16.73;;;10.63;;
8663;SDS011;4369;47.842;13.096;2023-01-25T06:31:06;17.27;;;10.50;;
8663;SDS011;4369;47.842;13.096;2023-01-25T06:33:34;14.23;;;10.10;;
8663;SDS011;4369;47.842;13.096;2023-01-25T06:36:02;14.80;;;10.07;;
8663;SDS011;4369;47.842;13.096;2023-01-25T06:38:30;15.43;;;10.83;;
8663;SDS011;4369;47.842;13.096;2023-01-25T06:40:58;18.17;;;10.77;;
8663;SDS011;4369;47.842;13.096;2023-01-25T06:43:25;15.43;;;10.03;;
8663;SDS011;4369;47.842;13.096;2023-01-25T06:45:57;16.07;;;11.17;;
8663;SDS011;4369;47.842;13.096;2023-01-25T06:48:24;15.23;;;10.73;;
8663;SDS011;4369;47.842;13.096;2023-01-25T06:50:55;13.50;;;10.03;;
8663;SDS011;4369;47.842;13.096;2023-01-25T06:53:23;13.47;;;9.97;;
8663;SDS011;4369;47.842;13.096;2023-01-25T06:55:55;17.70;;;10.90;;
8663;SDS011;4369;47.842;13.096;2023-01-25T06:58:24;16.17;;;10.60;;
8663;SDS011;4369;47.842;13.096;2023-01-25T07:00:51;16.07;;;10.47;;
8663;SDS011;4369;47.842;13.096;2023-01-25T07:03:19;14.13;;;10.73;;
8663;SDS011;4369;47.842;13.096;2023-01-25T07:05:46;15.40;;;10.63;;
8663;SDS011;4369;47.842;13.096;2023-01-25T07:08:13;15.20;;;10.07;;
8663;SDS011;4369;47.842;13.096;2023-01-25T07:10:40;13.83;;;10.00;;
8663;SDS011;4369;47.842;13.096;2023-01-25T07:13:07;17.63;;;11.60;;
8663;SDS011;4369;47.842;13.096;2023-01-25T07:15:34;17.73;;;11.83;;
8663;SDS011;4369;47.842;13.096;2023-01-25T07:18:01;17.23;;;11.70;;
8663;SDS011;4369;47.842;13.096;2023-01-25T07:20:29;17.33;;;12.07;;
8663;SDS011;4369;47.842;13.096;2023-01-25T07:22:57;17.13;;;10.53;;
8663;SDS011;4369;47.842;13.096;2023-01-25T07:25:24;16.30;;;10.77;;
8663;SDS011;4369;47.842;13.096;2023-01-25T07:27:51;15.73;;;11.17;;
8663;SDS011;4369;47.842;13.096;2023-01-25T07:30:18;17.10;;;11.03;;
8663;SDS011;4369;47.842;13.096;2023-01-25T07:32:45;13.83;;;10.67;;
8663;SDS011;4369;47.842;13.096;2023-01-25T07:35:12;16.17;;;11.20;;
8663;SDS011;4369;47.842;13.096;2023-01-25T07:37:40;16.60;;;11.47;;
8663;SDS011;4369;47.842;13.096;2023-01-25T07:40:08;17.87;;;12.43;;
8663;SDS011;4369;47.842;13.096;2023-01-25T07:42:36;15.67;;;11.00;;
8663;SDS011;4369;47.842;13.096;2023-01-25T07:45:03;15.27;;;10.77;;
8663;SDS011;4369;47.842;13.096;2023-01-25T07:47:30;16.00;;;11.30;;
8663;SDS011;4369;47.842;13.096;2023-01-25T07:49:57;14.37;;;10.47;;
8663;SDS011;4369;47.842;13.096;2023-01-25T07:52:23;14.30;;;10.47;;
8663;SDS011;4369;47.842;13.096;2023-01-25T07:54:52;17.47;;;11.90;;
8663;SDS011;4369;47.842;13.096;2023-01-25T07:57:18;17.27;;;12.37;;
8663;SDS011;4369;47.842;13.096;2023-01-25T07:59:45;15.80;;;11.40;;
8663;SDS011;4369;47.842;13.096;2023-01-25T08:02:13;16.20;;;10.77;;
8663;SDS011;4369;47.842;13.096;2023-01-25T08:04:40;14.87;;;10.83;;
8663;SDS011;4369;47.842;13.096;2023-01-25T08:07:09;15.00;;;10.27;;
8663;SDS011;4369;47.842;13.096;2023-01-25T08:09:36;14.80;;;10.87;;
8663;SDS011;4369;47.842;13.096;2023-01-25T08:12:05;16.70;;;11.57;;
8663;SDS011;4369;47.842;13.096;2023-01-25T08:14:32;17.70;;;10.60;;
8663;SDS011;4369;47.842;13.096;2023-01-25T08:16:59;14.93;;;10.40;;
8663;SDS011;4369;47.842;13.096;2023-01-25T08:19:26;19.07;;;12.17;;
8663;SDS011;4369;47.842;13.096;2023-01-25T08:21:52;17.93;;;11.63;;
8663;SDS011;4369;47.842;13.096;2023-01-25T08:24:19;15.73;;;10.30;;
8663;SDS011;4369;47.842;13.096;2023-01-25T08:26:46;14.23;;;10.43;;
8663;SDS011;4369;47.842;13.096;2023-01-25T08:29:14;17.00;;;10.73;;
8663;SDS011;4369;47.842;13.096;2023-01-25T08:31:41;18.37;;;11.40;;
8663;SDS011;4369;47.842;13.096;2023-01-25T08:34:09;15.57;;;10.47;;
8663;SDS011;4369;47.842;13.096;2023-01-25T08:36:36;16.20;;;11.13;;
8663;SDS011;4369;47.842;13.096;2023-01-25T08:39:04;13.70;;;10.43;;
8663;SDS011;4369;47.842;13.096;2023-01-25T08:41:33;15.00;;;10.53;;
8663;SDS011;4369;47.842;13.096;2023-01-25T08:44:00;14.60;;;11.10;;
8663;SDS011;4369;47.842;13.096;2023-01-25T08:46:29;13.73;;;9.83;;
8663;SDS011;4369;47.842;13.096;2023-01-25T08:48:57;13.90;;;9.80;;
8663;SDS011;4369;47.842;13.096;2023-01-25T08:51:25;15.30;;;10.13;;
8663;SDS011;4369;47.842;13.096;2023-01-25T08:53:52;15.97;;;10.37;;
8663;SDS011;4369;47.842;13.096;2023-01-25T08:56:19;14.93;;;10.37;;
8663;SDS011;4369;47.842;13.096;2023-01-25T08:58:46;15.33;;;9.93;;
8663;SDS011;4369;47.842;13.096;2023-01-25T09:01:14;13.67;;;9.50;;
8663;SDS011;4369;47.842;13.096;2023-01-25T09:03:45;13.27;;;9.57;;
8663;SDS011;4369;47.842;13.096;2023-01-25T09:06:12;15.23;;;9.93;;
8663;SDS011;4369;47.842;13.096;2023-01-25T09:08:39;14.10;;;9.57;;
8663;SDS011;4369;47.842;13.096;2023-01-25T09:11:07;13.70;;;9.67;;
8663;SDS011;4369;47.842;13.096;2023-01-25T09:13:35;13.33;;;9.23;;
8663;SDS011;4369;47.842;13.096;2023-01-25T09:16:03;13.83;;;9.20;;
8663;SDS011;4369;47.842;13.096;2023-01-25T09:18:32;13.90;;;9.33;;
8663;SDS011;4369;47.842;13.096;2023-01-25T09:21:05;16.00;;;8.97;;
8663;SDS011;4369;47.842;13.096;2023-01-25T09:23:33;13.07;;;9.37;;
8663;SDS011;4369;47.842;13.096;2023-01-25T09:26:00;11.60;;;9.37;;
8663;SDS011;4369;47.842;13.096;2023-01-25T09:28:28;13.70;;;9.43;;
8663;SDS011;4369;47.842;13.096;2023-01-25T09:30:56;11.47;;;8.30;;
8663;SDS011;4369;47.842;13.096;2023-01-25T09:33:24;12.53;;;9.00;;
8663;SDS011;4369;47.842;13.096;2023-01-25T09:35:52;12.97;;;8.47;;
8663;SDS011;4369;47.842;13.096;2023-01-25T09:38:20;14.47;;;10.00;;
8663;SDS011;4369;47.842;13.096;2023-01-25T09:40:51;12.40;;;9.50;;
8663;SDS011;4369;47.842;13.096;2023-01-25T09:43:30;13.17;;;9.23;;
8663;SDS011;4369;47.842;13.096;2023-01-25T09:46:10;12.63;;;8.90;;
8663;SDS011;4369;47.842;13.096;2023-01-25T09:48:46;12.17;;;8.10;;
8663;SDS011;4369;47.842;13.096;2023-01-25T09:51:23;12.93;;;8.97;;
8663;SDS011;4369;47.842;13.096;2023-01-25T09:53:55;12.53;;;8.83;;
8663;SDS011;4369;47.842;13.096;2023-01-25T09:56:24;13.83;;;9.20;;
8663;SDS011;4369;47.842;13.096;2023-01-25T09:58:54;12.97;;;9.27;;
8663;SDS011;4369;47.842;13.096;2023-01-25T10:01:26;11.47;;;8.97;;
8663;SDS011;4369;47.842;13.096;2023-01-25T10:03:59;12.33;;;9.23;;
8663;SDS011;4369;47.842;13.096;2023-01-25T10:06:32;14.57;;;9.80;;
8663;SDS011;4369;47.842;13.096;2023-01-25T10:09:06;13.40;;;9.53;;
8663;SDS011;4369;47.842;13.096;2023-01-25T10:11:44;15.43;;;10.43;;
8663;SDS011;4369;47.842;13.096;2023-01-25T10:14:12;12.47;;;9.63;;
8663;SDS011;4369;47.842;13.096;2023-01-25T10:16:49;13.10;;;9.43;;
8663;SDS011;4369;47.842;13.096;2023-01-25T10:19:24;18.53;;;9.43;;
8663;SDS011;4369;47.842;13.096;2023-01-25T10:21:57;14.87;;;10.13;;
8663;SDS011;4369;47.842;13.096;2023-01-25T10:24:36;16.63;;;10.70;;
8663;SDS011;4369;47.842;13.096;2023-01-25T10:27:23;13.13;;;9.50;;
8663;SDS011;4369;47.842;13.096;2023-01-25T10:29:58;13.70;;;9.70;;
8663;SDS011;4369;47.842;13.096;2023-01-25T10:32:32;13.90;;;10.00;;
8663;SDS011;4369;47.842;13.096;2023-01-25T10:35:00;14.93;;;10.27;;
8663;SDS011;4369;47.842;13.096;2023-01-25T10:37:39;15.43;;;10.10;;
8663;SDS011;4369;47.842;13.096;2023-01-25T10:40:13;15.73;;;10.10;;
8663;SDS011;4369;47.842;13.096;2023-01-25T10:42:44;16.40;;;10.57;;
8663;SDS011;4369;47.842;13.096;2023-01-25T10:45:14;15.17;;;10.43;;
8663;SDS011;4369;47.842;13.096;2023-01-25T10:47:45;14.47;;;9.77;;
8663;SDS011;4369;47.842;13.096;2023-01-25T10:53:17;16.97;;;11.00;;
8663;SDS011;4369;47.842;13.096;2023-01-25T10:58:48;15.83;;;10.60;;
8663;SDS011;4369;47.842;13.096;2023-01-25T11:01:26;17.20;;;11.30;;
8663;SDS011;4369;47.842;13.096;2023-01-25T11:03:55;14.67;;;10.07;;
8663;SDS011;4369;47.842;13.096;2023-01-25T11:06:30;16.73;;;11.40;;
8663;SDS011;4369;47.842;13.096;2023-01-25T11:08:58;17.17;;;10.87;;
8663;SDS011;4369;47.842;13.096;2023-01-25T11:11:30;17.40;;;10.97;;
8663;SDS011;4369;47.842;13.096;2023-01-25T11:14:00;16.67;;;10.93;;
8663;SDS011;4369;47.842;13.096;2023-01-25T11:16:29;15.33;;;10.73;;
8663;SDS011;4369;47.842;13.096;2023-01-25T11:18:58;16.80;;;10.83;;
8663;SDS011;4369;47.842;13.096;2023-01-25T11:21:27;16.13;;;10.60;;
8663;SDS011;4369;47.842;13.096;2023-01-25T11:23:56;15.13;;;10.27;;
8663;SDS011;4369;47.842;13.096;2023-01-25T11:26:42;15.03;;;10.00;;
8663;SDS011;4369;47.842;13.096;2023-01-25T11:29:11;16.70;;;10.70;;
8663;SDS011;4369;47.842;13.096;2023-01-25T11:31:40;18.57;;;12.03;;
8663;SDS011;4369;47.842;13.096;2023-01-25T11:34:10;21.53;;;12.97;;
8663;SDS011;4369;47.842;13.096;2023-01-25T11:36:41;24.43;;;14.93;;
8663;SDS011;4369;47.842;13.096;2023-01-25T11:39:37;27.67;;;15.50;;
8663;SDS011;4369;47.842;13.096;2023-01-25T11:42:19;25.67;;;16.10;;
8663;SDS011;4369;47.842;13.096;2023-01-25T11:45:01;17.10;;;11.10;;
8663;SDS011;4369;47.842;13.096;2023-01-25T11:47:53;12.33;;;9.17;;
8663;SDS011;4369;47.842;13.096;2023-01-25T11:50:30;14.87;;;10.03;;
8663;SDS011;4369;47.842;13.096;2023-01-25T11:53:11;13.87;;;9.53;;
8663;SDS011;4369;47.842;13.096;2023-01-25T11:55:53;14.63;;;10.00;;
8663;SDS011;4369;47.842;13.096;2023-01-25T11:58:45;17.33;;;10.77;;
8663;SDS011;4369;47.842;13.096;2023-01-25T12:01:32;15.43;;;11.82;;
8663;SDS011;4369;47.842;13.096;2023-01-25T12:04:24;14.20;;;10.33;;
8663;SDS011;4369;47.842;13.096;2023-01-25T12:07:07;15.97;;;10.73;;
8663;SDS011;4369;47.842;13.096;2023-01-25T12:09:45;15.07;;;10.57;;
8663;SDS011;4369;47.842;13.096;2023-01-25T12:12:28;15.70;;;10.13;;
8663;SDS011;4369;47.842;13.096;2023-01-25T12:15:11;14.80;;;9.97;;
8663;SDS011;4369;47.842;13.096;2023-01-25T12:17:55;15.37;;;10.33;;
8663;SDS011;4369;47.842;13.096;2023-01-25T12:20:42;14.20;;;10.07;;
8663;SDS011;4369;47.842;13.096;2023-01-25T12:23:29;15.77;;;10.70;;
8663;SDS011;4369;47.842;13.096;2023-01-25T12:26:12;16.17;;;10.40;;
8663;SDS011;4369;47.842;13.096;2023-01-25T12:28:46;15.27;;;10.37;;
8663;SDS011;4369;47.842;13.096;2023-01-25T12:31:17;17.08;;;10.90;;
8663;SDS011;4369;47.842;13.096;2023-01-25T12:33:49;17.77;;;11.47;;
8663;SDS011;4369;47.842;13.096;2023-01-25T12:36:20;17.10;;;11.27;;
8663;SDS011;4369;47.842;13.096;2023-01-25T12:38:53;16.00;;;10.20;;
8663;SDS011;4369;47.842;13.096;2023-01-25T12:41:29;16.97;;;10.87;;
8663;SDS011;4369;47.842;13.096;2023-01-25T12:44:02;18.47;;;10.03;;
8663;SDS011;4369;47.842;13.096;2023-01-25T12:46:41;17.60;;;11.30;;
8663;SDS011;4369;47.842;13.096;2023-01-25T12:49:16;16.90;;;10.77;;
8663;SDS011;4369;47.842;13.096;2023-01-25T12:51:49;19.20;;;11.50;;
8663;SDS011;4369;47.842;13.096;2023-01-25T12:54:18;18.27;;;10.50;;
8663;SDS011;4369;47.842;13.096;2023-01-25T12:56:53;15.97;;;10.50;;
8663;SDS011;4369;47.842;13.096;2023-01-25T12:59:30;18.13;;;11.63;;
8663;SDS011;4369;47.842;13.096;2023-01-25T13:02:07;15.10;;;10.40;;
8663;SDS011;4369;47.842;13.096;2023-01-25T13:04:48;18.67;;;11.10;;
8663;SDS011;4369;47.842;13.096;2023-01-25T13:07:26;15.27;;;11.00;;
8663;SDS011;4369;47.842;13.096;2023-01-25T13:10:01;15.20;;;9.97;;
8663;SDS011;4369;47.842;13.096;2023-01-25T13:12:48;13.73;;;9.87;;
8663;SDS011;4369;47.842;13.096;2023-01-25T13:21:05;14.67;;;10.60;;
8663;SDS011;4369;47.842;13.096;2023-01-25T13:23:37;16.73;;;10.50;;
8663;SDS011;4369;47.842;13.096;2023-01-25T13:29:41;16.50;;;10.03;;
8663;SDS011;4369;47.842;13.096;2023-01-25T13:32:11;15.93;;;10.80;;
8663;SDS011;4369;47.842;13.096;2023-01-25T13:34:55;17.50;;;10.77;;
8663;SDS011;4369;47.842;13.096;2023-01-25T13:37:24;17.70;;;10.83;;
8663;SDS011;4369;47.842;13.096;2023-01-25T13:39:53;16.80;;;10.83;;
8663;SDS011;4369;47.842;13.096;2023-01-25T13:42:21;15.47;;;10.93;;
8663;SDS011;4369;47.842;13.096;2023-01-25T13:44:50;23.67;;;18.27;;
8663;SDS011;4369;47.842;13.096;2023-01-25T13:47:20;19.83;;;14.27;;
8663;SDS011;4369;47.842;13.096;2023-01-25T13:49:50;19.73;;;12.63;;
8663;SDS011;4369;47.842;13.096;2023-01-25T13:52:21;18.77;;;12.57;;
8663;SDS011;4369;47.842;13.096;2023-01-25T13:54:52;19.47;;;12.67;;
8663;SDS011;4369;47.842;13.096;2023-01-25T13:57:21;20.30;;;12.70;;
8663;SDS011;4369;47.842;13.096;2023-01-25T13:59:56;21.10;;;13.73;;
8663;SDS011;4369;47.842;13.096;2023-01-25T14:02:27;20.23;;;13.03;;
8663;SDS011;4369;47.842;13.096;2023-01-25T14:04:55;18.83;;;13.40;;
8663;SDS011;4369;47.842;13.096;2023-01-25T14:07:27;21.20;;;13.73;;
8663;SDS011;4369;47.842;13.096;2023-01-25T14:09:58;19.10;;;13.23;;
8663;SDS011;4369;47.842;13.096;2023-01-25T14:12:30;20.93;;;13.17;;
8663;SDS011;4369;47.842;13.096;2023-01-25T14:15:17;23.77;;;13.63;;
8663;SDS011;4369;47.842;13.096;2023-01-25T14:20:38;20.67;;;13.33;;
8663;SDS011;4369;47.842;13.096;2023-01-25T14:23:18;22.30;;;14.20;;
8663;SDS011;4369;47.842;13.096;2023-01-25T14:25:50;19.60;;;13.33;;
8663;SDS011;4369;47.842;13.096;2023-01-25T14:28:19;20.67;;;13.73;;
8663;SDS011;4369;47.842;13.096;2023-01-25T14:30:49;20.40;;;13.83;;
8663;SDS011;4369;47.842;13.096;2023-01-25T14:33:19;22.33;;;13.07;;
8663;SDS011;4369;47.842;13.096;2023-01-25T14:35:48;20.17;;;13.37;;
8663;SDS011;4369;47.842;13.096;2023-01-25T14:41:06;20.50;;;12.90;;
8663;SDS011;4369;47.842;13.096;2023-01-25T14:43:38;19.73;;;13.27;;
8663;SDS011;4369;47.842;13.096;2023-01-25T14:46:19;21.87;;;13.80;;
8663;SDS011;4369;47.842;13.096;2023-01-25T14:48:48;21.90;;;13.90;;
8663;SDS011;4369;47.842;13.096;2023-01-25T14:51:21;21.10;;;13.87;;
8663;SDS011;4369;47.842;13.096;2023-01-25T14:53:54;21.07;;;12.87;;
8663;SDS011;4369;47.842;13.096;2023-01-25T14:56:30;22.20;;;13.13;;
8663;SDS011;4369;47.842;13.096;2023-01-25T14:59:00;20.67;;;13.10;;
8663;SDS011;4369;47.842;13.096;2023-01-25T15:01:29;21.60;;;13.17;;
8663;SDS011;4369;47.842;13.096;2023-01-25T15:04:01;20.83;;;13.00;;
8663;SDS011;4369;47.842;13.096;2023-01-25T15:06:28;18.60;;;13.30;;
8663;SDS011;4369;47.842;13.096;2023-01-25T15:08:55;19.93;;;12.70;;
8663;SDS011;4369;47.842;13.096;2023-01-25T15:11:27;18.47;;;12.40;;
8663;SDS011;4369;47.842;13.096;2023-01-25T15:14:16;19.47;;;12.03;;
8663;SDS011;4369;47.842;13.096;2023-01-25T15:16:45;23.93;;;13.77;;
8663;SDS011;4369;47.842;13.096;2023-01-25T15:19:22;22.10;;;14.10;;